Time;durP1;ratioP1;P1;durP2;ratioP2;P2;SDS_P1;SDS_P2;PMS_P1;PMS_P2;Temp;Humidity;BMP_temperature;BMP_pressure;BME280_temperature;BME280_humidity;BME280_pressure;Samples;Min_cycle;Max_cycle;Signal;HPM_P1;HPM_P2
2021/06/18 00:00:03;;;;;;;7.43;5.10;;;;;;;;;;5013912;28;20025;-79
2021/06/18 00:02:28;;;;;;;7.15;5.20;;;;;;;;;;5014881;28;20041;-79
2021/06/18 00:04:54;;;;;;;9.65;5.22;;;;;;;;;;5011515;28;20030;-76
2021/06/18 00:07:20;;;;;;;7.25;5.10;;;;;;;;;;5011872;28;20112;-76
2021/06/18 00:09:45;;;;;;;6.60;4.20;;;;;;;;;;5011708;28;20034;-75
2021/06/18 00:12:11;;;;;;;8.57;5.65;;;;;;;;;;5011412;28;20041;-76
2021/06/18 00:14:36;;;;;;;7.10;4.72;;;;;;;;;;5011165;28;20033;-76
2021/06/18 00:17:02;;;;;;;7.18;4.57;;;;;;;;;;5011351;28;20030;-76
2021/06/18 00:19:28;;;;;;;8.85;4.75;;;;;;;;;;5011011;28;20038;-76
2021/06/18 00:21:53;;;;;;;6.95;4.63;;;;;;;;;;4995402;28;20487;-76
2021/06/18 00:24:19;;;;;;;6.30;4.75;;;;;;;;;;5011597;28;20103;-75
2021/06/18 00:26:44;;;;;;;6.18;3.85;;;;;;;;;;5001090;28;20033;-76
2021/06/18 00:29:10;;;;;;;6.90;4.18;;;;;;;;;;5013909;28;20084;-76
2021/06/18 00:31:35;;;;;;;7.55;3.78;;;;;;;;;;5014784;28;20041;-76
2021/06/18 00:34:01;;;;;;;6.97;4.60;;;;;;;;;;5047556;28;20029;-75
2021/06/18 00:36:26;;;;;;;7.68;4.65;;;;;;;;;;5014537;28;20049;-76
2021/06/18 00:38:52;;;;;;;4.78;3.08;;;;;;;;;;5014806;28;20110;-76
2021/06/18 00:41:18;;;;;;;5.95;4.20;;;;;;;;;;5014534;28;20052;-75
2021/06/18 00:43:43;;;;;;;6.50;3.92;;;;;;;;;;5030196;28;20095;-76
2021/06/18 00:46:09;;;;;;;5.47;4.05;;;;;;;;;;5024363;28;20025;-76
2021/06/18 00:48:34;;;;;;;5.40;3.50;;;;;;;;;;5031589;28;20029;-75
2021/06/18 00:51:01;;;;;;;7.97;4.05;;;;;;;;;;5014448;28;20037;-76
2021/06/18 00:53:26;;;;;;;6.07;3.65;;;;;;;;;;5014198;28;20079;-76
2021/06/18 00:55:51;;;;;;;5.75;3.35;;;;;;;;;;5014316;28;20418;-76
2021/06/18 00:58:17;;;;;;;5.47;3.33;;;;;;;;;;5013938;28;20108;-76
2021/06/18 01:00:43;;;;;;;7.15;3.55;;;;;;;;;;5014084;28;20040;-76
2021/06/18 01:03:09;;;;;;;7.82;3.90;;;;;;;;;;5014535;28;20104;-76
2021/06/18 01:05:34;;;;;;;6.22;3.40;;;;;;;;;;5013594;28;20049;-76
2021/06/18 01:08:20;;;;;;;4.50;2.78;;;;;;;;;;5030968;28;20115;-76
2021/06/18 01:11:24;;;;;;;6.72;3.47;;;;;;;;;;5031159;28;20119;-76
2021/06/18 01:13:58;;;;;;;7.85;4.18;;;;;;;;;;5012016;28;20049;-78
2021/06/18 01:16:37;;;;;;;5.75;3.03;;;;;;;;;;5031442;28;20103;-77
2021/06/18 01:19:19;;;;;;;5.65;3.03;;;;;;;;;;5032154;28;20033;-78
2021/06/18 01:21:45;;;;;;;;;;;;;;;;;;4999384;28;20448;-78
2021/06/18 01:24:30;;;;;;;7.05;4.18;;;;;;;;;;5014362;28;19909;-78
2021/06/18 01:27:31;;;;;;;5.82;3.03;;;;;;;;;;5013890;28;20045;-78
2021/06/18 01:30:06;;;;;;;6.40;2.95;;;;;;;;;;5017169;28;20030;-78
2021/06/18 01:32:55;;;;;;;4.82;3.10;;;;;;;;;;5035697;28;20037;-78
2021/06/18 01:35:20;;;;;;;5.55;3.42;;;;;;;;;;5019785;28;20056;-78
2021/06/18 01:37:51;;;;;;;4.00;2.70;;;;;;;;;;5034463;28;20491;-78
2021/06/18 01:40:17;;;;;;;5.05;2.70;;;;;;;;;;5034039;28;20029;-78
2021/06/18 01:42:43;;;;;;;6.78;3.40;;;;;;;;;;5033804;28;20030;-78
2021/06/18 01:45:11;;;;;;;5.65;2.78;;;;;;;;;;5035564;28;20044;-78
2021/06/18 01:47:37;;;;;;;5.55;3.90;;;;;;;;;;5011644;28;20030;-78
2021/06/18 01:50:03;;;;;;;5.97;3.30;;;;;;;;;;5012999;28;20476;-78
2021/06/18 01:52:29;;;;;;;5.30;2.85;;;;;;;;;;5017869;28;20501;-78
2021/06/18 01:54:54;;;;;;;5.00;3.25;;;;;;;;;;5033375;28;20045;-75
2021/06/18 01:57:21;;;;;;;3.70;2.80;;;;;;;;;;5034082;28;20112;-78
2021/06/18 01:59:46;;;;;;;5.18;3.05;;;;;;;;;;5033870;28;20033;-78
2021/06/18 02:02:12;;;;;;;4.15;2.90;;;;;;;;;;5032269;28;20488;-78
2021/06/18 02:04:41;;;;;;;4.88;3.05;;;;;;;;;;5022703;28;20056;-78
2021/06/18 02:07:06;;;;;;;6.10;3.75;;;;;;;;;;5033961;28;20537;-78
2021/06/18 02:09:32;;;;;;;6.43;2.83;;;;;;;;;;5050674;28;20057;-78
2021/06/18 02:11:57;;;;;;;4.75;2.95;;;;;;;;;;5033638;28;20030;-78
2021/06/18 02:14:25;;;;;;;5.38;2.95;;;;;;;;;;5049807;28;20045;-78
2021/06/18 02:16:55;;;;;;;6.07;3.25;;;;;;;;;;5050169;28;20026;-78
2021/06/18 02:19:21;;;;;;;4.45;3.13;;;;;;;;;;5033573;28;20041;-78
2021/06/18 02:21:47;;;;;;;4.57;2.65;;;;;;;;;;5027307;28;20495;-78
2021/06/18 02:24:14;;;;;;;4.47;3.00;;;;;;;;;;4997463;28;20034;-78
2021/06/18 02:26:39;;;;;;;4.53;3.28;;;;;;;;;;4997112;28;20054;-78
2021/06/18 02:29:05;;;;;;;5.15;3.00;;;;;;;;;;5029834;28;20475;-78
2021/06/18 02:31:31;;;;;;;3.83;2.60;;;;;;;;;;5033311;28;20476;-78
2021/06/18 02:33:56;;;;;;;5.47;3.03;;;;;;;;;;5033286;28;20037;-78
2021/06/18 02:36:22;;;;;;;6.43;3.47;;;;;;;;;;5050104;28;20030;-78
2021/06/18 02:38:48;;;;;;;5.53;3.40;;;;;;;;;;5033305;28;20103;-78
2021/06/18 02:41:14;;;;;;;4.95;2.55;;;;;;;;;;5030917;28;20061;-78
2021/06/18 02:43:39;;;;;;;6.22;3.28;;;;;;;;;;5013126;28;20073;-78
2021/06/18 02:46:05;;;;;;;4.80;2.78;;;;;;;;;;5042129;28;20041;-79
2021/06/18 02:48:38;;;;;;;4.90;3.00;;;;;;;;;;5041315;28;20037;-78
2021/06/18 02:51:20;;;;;;;4.57;2.97;;;;;;;;;;5016052;28;20032;-78
2021/06/18 02:53:55;;;;;;;4.45;3.08;;;;;;;;;;4999265;28;20136;-78
2021/06/18 02:56:22;;;;;;;4.75;2.72;;;;;;;;;;5033020;28;20369;-78
2021/06/18 02:59:26;;;;;;;4.00;2.72;;;;;;;;;;5015344;28;20068;-78
2021/06/18 03:01:52;;;;;;;4.60;2.88;;;;;;;;;;5032759;28;20430;-78
2021/06/18 03:04:23;;;;;;;6.20;2.90;;;;;;;;;;5032351;28;20394;-78
2021/06/18 03:06:53;;;;;;;6.53;2.83;;;;;;;;;;5016246;28;20025;-80
2021/06/18 03:09:25;;;;;;;5.18;3.30;;;;;;;;;;4999887;28;20044;-78
2021/06/18 03:11:51;;;;;;;5.47;2.58;;;;;;;;;;5000437;28;20365;-78
2021/06/18 03:14:17;;;;;;;4.38;2.83;;;;;;;;;;5015768;28;20047;-78
2021/06/18 03:16:43;;;;;;;4.63;2.42;;;;;;;;;;5015474;28;20136;-78
2021/06/18 03:19:09;;;;;;;4.03;2.63;;;;;;;;;;5016124;28;20116;-78
2021/06/18 03:21:35;;;;;;;4.28;2.67;;;;;;;;;;5032414;28;20127;-78
2021/06/18 03:24:01;;;;;;;6.05;3.08;;;;;;;;;;5015541;28;20025;-78
2021/06/18 03:26:27;;;;;;;5.00;2.85;;;;;;;;;;5032445;28;20032;-78
2021/06/18 03:28:53;;;;;;;4.50;2.92;;;;;;;;;;5008756;28;20049;-79
2021/06/18 03:31:19;;;;;;;5.95;3.92;;;;;;;;;;5028936;28;20065;-78
2021/06/18 03:33:44;;;;;;;6.15;3.47;;;;;;;;;;5012226;28;20045;-78
2021/06/18 03:36:10;;;;;;;5.93;2.65;;;;;;;;;;5035464;28;20033;-78
2021/06/18 03:38:35;;;;;;;5.68;3.00;;;;;;;;;;5031992;28;20037;-78
2021/06/18 03:41:01;;;;;;;6.43;4.10;;;;;;;;;;5032341;28;20037;-78
2021/06/18 03:43:27;;;;;;;5.03;3.58;;;;;;;;;;5019290;28;20404;-78
2021/06/18 03:45:55;;;;;;;5.55;3.10;;;;;;;;;;5037570;28;20032;-78
2021/06/18 03:48:20;;;;;;;4.53;3.38;;;;;;;;;;5051096;28;20041;-78
2021/06/18 03:50:46;;;;;;;4.18;2.83;;;;;;;;;;5031750;28;20054;-78
2021/06/18 03:53:14;;;;;;;5.13;3.92;;;;;;;;;;5013353;28;20108;-78
2021/06/18 03:55:39;;;;;;;5.82;3.05;;;;;;;;;;5013031;28;20030;-78
2021/06/18 03:58:05;;;;;;;6.50;3.80;;;;;;;;;;4995152;28;20507;-78
2021/06/18 04:00:36;;;;;;;5.07;3.35;;;;;;;;;;5012526;28;20057;-79
2021/06/18 04:03:01;;;;;;;5.10;3.63;;;;;;;;;;5044777;28;20111;-78
2021/06/18 04:05:27;;;;;;;6.35;3.05;;;;;;;;;;5014792;28;20084;-78
2021/06/18 04:07:53;;;;;;;5.18;3.67;;;;;;;;;;5034313;28;20046;-78
2021/06/18 04:10:18;;;;;;;5.72;3.40;;;;;;;;;;5028512;28;20033;-78
2021/06/18 04:12:44;;;;;;;5.15;3.75;;;;;;;;;;4995252;28;20073;-78
2021/06/18 04:15:10;;;;;;;5.65;3.35;;;;;;;;;;5012515;28;20033;-78
2021/06/18 04:17:36;;;;;;;6.72;3.97;;;;;;;;;;4995606;28;20033;-76
2021/06/18 04:20:02;;;;;;;4.55;3.28;;;;;;;;;;4995168;28;20570;-77
2021/06/18 04:22:30;;;;;;;4.65;3.40;;;;;;;;;;5011658;28;20041;-76
2021/06/18 04:24:56;;;;;;;5.65;3.47;;;;;;;;;;5011296;28;20041;-76
2021/06/18 04:27:21;;;;;;;4.82;3.35;;;;;;;;;;5011553;28;20037;-75
2021/06/18 04:29:47;;;;;;;8.52;4.25;;;;;;;;;;5010977;28;20480;-76
2021/06/18 04:32:12;;;;;;;5.22;3.83;;;;;;;;;;5028367;28;20040;-75
2021/06/18 04:34:38;;;;;;;11.43;4.28;;;;;;;;;;5030623;28;20029;-75
2021/06/18 04:37:03;;;;;;;8.27;4.32;;;;;;;;;;5028592;28;20037;-74
2021/06/18 04:39:29;;;;;;;5.97;4.03;;;;;;;;;;5028502;28;20037;-75
2021/06/18 04:41:54;;;;;;;5.38;3.85;;;;;;;;;;5013457;28;20045;-74
2021/06/18 04:44:21;;;;;;;6.53;4.00;;;;;;;;;;5027236;28;20045;-74
2021/06/18 04:46:47;;;;;;;4.07;3.35;;;;;;;;;;5026531;28;20025;-74
2021/06/18 04:49:13;;;;;;;6.60;3.78;;;;;;;;;;5014599;28;20078;-74
2021/06/18 04:51:38;;;;;;;4.82;3.88;;;;;;;;;;5014721;28;20371;-74
2021/06/18 04:54:04;;;;;;;4.90;3.50;;;;;;;;;;4998129;28;20100;-74
2021/06/18 04:56:29;;;;;;;6.72;4.07;;;;;;;;;;5014552;28;20154;-74
2021/06/18 04:58:57;;;;;;;6.82;4.00;;;;;;;;;;5023404;28;20119;-75
2021/06/18 05:01:23;;;;;;;5.55;4.07;;;;;;;;;;5011033;28;20503;-75
2021/06/18 05:03:48;;;;;;;8.05;4.38;;;;;;;;;;5026366;28;20053;-76
2021/06/18 05:06:19;;;;;;;4.20;3.70;;;;;;;;;;5030161;28;20044;-76
2021/06/18 05:08:45;;;;;;;6.68;4.15;;;;;;;;;;5014380;28;20052;-76
2021/06/18 05:11:11;;;;;;;4.97;4.20;;;;;;;;;;5004172;28;20045;-76
2021/06/18 05:13:36;;;;;;;9.23;4.15;;;;;;;;;;5030084;28;20033;-76
2021/06/18 05:16:02;;;;;;;5.82;3.63;;;;;;;;;;5030388;28;20495;-77
2021/06/18 05:18:27;;;;;;;5.55;3.45;;;;;;;;;;5030382;28;20033;-77
2021/06/18 05:20:53;;;;;;;5.55;3.83;;;;;;;;;;5042340;28;20030;-77
2021/06/18 05:23:19;;;;;;;6.53;4.22;;;;;;;;;;5019649;28;20044;-78
2021/06/18 05:25:44;;;;;;;6.82;4.10;;;;;;;;;;5030237;28;20452;-76
2021/06/18 05:28:10;;;;;;;5.93;3.72;;;;;;;;;;5009822;28;20225;-77
2021/06/18 05:30:35;;;;;;;7.00;4.13;;;;;;;;;;4993882;28;20046;-77
2021/06/18 05:33:01;;;;;;;8.18;4.60;;;;;;;;;;5010340;28;20030;-76
2021/06/18 05:35:26;;;;;;;6.07;4.18;;;;;;;;;;5026536;28;20583;-76
2021/06/18 05:37:52;;;;;;;5.85;4.47;;;;;;;;;;4994086;28;20540;-76
2021/06/18 05:40:17;;;;;;;5.90;4.22;;;;;;;;;;5029472;28;20536;-76
2021/06/18 05:42:43;;;;;;;5.82;4.32;;;;;;;;;;5027161;28;20491;-77
2021/06/18 05:45:09;;;;;;;7.18;4.40;;;;;;;;;;5004968;28;20068;-77
2021/06/18 05:47:34;;;;;;;9.68;5.47;;;;;;;;;;5009988;28;20057;-76
2021/06/18 05:50:00;;;;;;;8.63;5.55;;;;;;;;;;5013067;28;20385;-76
2021/06/18 05:52:25;;;;;;;8.05;5.20;;;;;;;;;;5010717;28;20141;-75
2021/06/18 05:54:51;;;;;;;7.90;4.45;;;;;;;;;;5026644;28;20082;-76
2021/06/18 05:57:16;;;;;;;8.00;4.30;;;;;;;;;;5010355;28;20066;-76
2021/06/18 05:59:42;;;;;;;6.22;4.38;;;;;;;;;;5026931;28;20107;-76
2021/06/18 06:02:07;;;;;;;12.05;5.18;;;;;;;;;;5003407;28;20028;-75
2021/06/18 06:04:34;;;;;;;7.75;4.88;;;;;;;;;;5016679;28;20509;-76
2021/06/18 06:07:00;;;;;;;8.75;5.20;;;;;;;;;;5040216;28;20068;-76
2021/06/18 06:09:25;;;;;;;6.40;4.85;;;;;;;;;;5021651;28;20073;-76
2021/06/18 06:11:50;;;;;;;7.35;4.78;;;;;;;;;;5022124;28;20041;-76
2021/06/18 06:14:17;;;;;;;9.13;5.88;;;;;;;;;;5012624;28;20034;-76
2021/06/18 06:16:43;;;;;;;7.30;5.28;;;;;;;;;;5030256;28;20124;-76
2021/06/18 06:19:08;;;;;;;9.45;5.72;;;;;;;;;;5017295;28;20108;-76
2021/06/18 06:21:34;;;;;;;9.98;4.75;;;;;;;;;;5000925;28;20387;-76
2021/06/18 06:23:59;;;;;;;7.80;4.65;;;;;;;;;;5017260;28;20025;-76
2021/06/18 06:26:25;;;;;;;9.63;5.28;;;;;;;;;;5016847;28;20026;-76
2021/06/18 06:28:50;;;;;;;6.53;5.20;;;;;;;;;;5033071;28;20030;-76
2021/06/18 06:31:16;;;;;;;6.78;5.47;;;;;;;;;;4992044;28;20026;-76
2021/06/18 06:33:41;;;;;;;7.68;5.70;;;;;;;;;;5013325;28;20030;-75
2021/06/18 06:36:08;;;;;;;10.20;6.45;;;;;;;;;;5023741;28;20026;-76
2021/06/18 06:38:33;;;;;;;8.70;5.57;;;;;;;;;;5049635;28;20398;-76
2021/06/18 06:40:59;;;;;;;9.38;6.10;;;;;;;;;;5016784;28;20025;-76
2021/06/18 06:43:24;;;;;;;9.85;5.30;;;;;;;;;;5031815;28;20076;-76
2021/06/18 06:45:50;;;;;;;9.60;6.18;;;;;;;;;;5015480;28;20099;-76
2021/06/18 06:48:16;;;;;;;8.15;5.53;;;;;;;;;;5026859;28;20534;-76
2021/06/18 06:50:44;;;;;;;12.02;6.50;;;;;;;;;;5032167;28;20040;-77
2021/06/18 06:53:09;;;;;;;11.98;7.60;;;;;;;;;;5003169;28;20476;-76
2021/06/18 06:55:35;;;;;;;8.20;6.40;;;;;;;;;;5010215;28;20069;-76
2021/06/18 06:58:00;;;;;;;8.25;5.88;;;;;;;;;;5038497;28;20546;-76
2021/06/18 07:00:26;;;;;;;10.20;6.65;;;;;;;;;;5031482;28;20073;-76
2021/06/18 07:02:52;;;;;;;11.65;8.40;;;;;;;;;;5014829;28;20068;-76
2021/06/18 07:05:18;;;;;;;12.65;7.15;;;;;;;;;;5012911;28;20034;-76
2021/06/18 07:07:43;;;;;;;11.13;6.20;;;;;;;;;;5012685;28;20022;-76
2021/06/18 07:10:09;;;;;;;13.10;6.97;;;;;;;;;;5028975;28;20036;-76
2021/06/18 07:12:35;;;;;;;8.80;5.97;;;;;;;;;;5016155;28;20566;-76
2021/06/18 07:15:00;;;;;;;10.65;5.70;;;;;;;;;;5027994;28;20049;-76
2021/06/18 07:17:26;;;;;;;10.63;6.22;;;;;;;;;;5029299;28;20109;-76
2021/06/18 07:19:53;;;;;;;12.02;7.20;;;;;;;;;;5029740;28;20032;-76
2021/06/18 07:22:21;;;;;;;10.70;6.13;;;;;;;;;;5025564;28;20033;-76
2021/06/18 07:24:47;;;;;;;10.93;5.97;;;;;;;;;;5045102;28;20029;-76
2021/06/18 07:27:13;;;;;;;9.60;6.20;;;;;;;;;;5045565;28;20041;-76
2021/06/18 07:29:39;;;;;;;10.13;6.18;;;;;;;;;;5024868;28;20116;-76
2021/06/18 07:32:05;;;;;;;17.17;6.72;;;;;;;;;;5030991;28;20059;-76
2021/06/18 07:34:31;;;;;;;10.70;6.00;;;;;;;;;;5015690;28;20493;-76
2021/06/18 07:36:56;;;;;;;13.00;5.97;;;;;;;;;;5015511;28;20403;-76
2021/06/18 07:39:22;;;;;;;7.35;5.85;;;;;;;;;;5032078;28;20033;-76
2021/06/18 07:41:47;;;;;;;9.40;5.85;;;;;;;;;;5015351;28;20112;-76
2021/06/18 07:44:13;;;;;;;7.68;5.45;;;;;;;;;;5014930;28;20029;-76
2021/06/18 07:46:38;;;;;;;8.75;5.85;;;;;;;;;;5031908;28;20109;-76
2021/06/18 07:49:04;;;;;;;6.93;5.13;;;;;;;;;;5032088;28;20028;-76
2021/06/18 07:51:29;;;;;;;11.18;6.65;;;;;;;;;;5031743;28;20037;-76
2021/06/18 07:53:55;;;;;;;10.15;5.85;;;;;;;;;;5031752;28;20451;-76
2021/06/18 07:56:29;;;;;;;9.25;5.57;;;;;;;;;;5031909;28;20041;-76
2021/06/18 07:58:55;;;;;;;10.50;5.57;;;;;;;;;;5028653;28;20514;-76
2021/06/18 08:01:20;;;;;;;9.85;4.95;;;;;;;;;;5048338;28;20037;-76
2021/06/18 08:03:46;;;;;;;8.00;4.93;;;;;;;;;;5021785;28;20064;-76
2021/06/18 08:06:12;;;;;;;10.05;5.13;;;;;;;;;;5014939;28;20033;-76
2021/06/18 08:08:37;;;;;;;8.13;5.57;;;;;;;;;;5028870;28;20383;-76
2021/06/18 08:11:03;;;;;;;13.00;5.10;;;;;;;;;;5004770;28;20037;-76
2021/06/18 08:13:28;;;;;;;7.75;5.88;;;;;;;;;;5021385;28;20045;-76
2021/06/18 08:15:54;;;;;;;8.63;5.25;;;;;;;;;;5041183;28;20061;-76
2021/06/18 08:18:20;;;;;;;11.65;4.68;;;;;;;;;;5031108;28;20044;-76
2021/06/18 08:20:45;;;;;;;11.57;4.70;;;;;;;;;;5031290;28;20041;-76
2021/06/18 08:23:11;;;;;;;9.63;4.55;;;;;;;;;;4998459;28;20116;-76
2021/06/18 08:25:36;;;;;;;8.38;4.47;;;;;;;;;;5026743;28;20041;-76
2021/06/18 08:28:02;;;;;;;9.68;4.75;;;;;;;;;;5026033;28;20029;-76
2021/06/18 08:30:27;;;;;;;10.50;4.68;;;;;;;;;;4994407;28;20156;-76
2021/06/18 08:32:53;;;;;;;9.30;5.00;;;;;;;;;;5015777;28;20037;-76
2021/06/18 08:35:19;;;;;;;9.38;4.45;;;;;;;;;;5016082;28;20030;-76
2021/06/18 08:37:44;;;;;;;10.52;4.75;;;;;;;;;;5027665;28;20026;-76
2021/06/18 08:40:11;;;;;;;9.07;4.30;;;;;;;;;;5010630;28;20117;-76
2021/06/18 08:42:36;;;;;;;12.50;4.93;;;;;;;;;;5010377;28;20042;-76
2021/06/18 08:45:03;;;;;;;8.27;4.40;;;;;;;;;;5038367;28;20033;-76
2021/06/18 08:47:28;;;;;;;11.73;4.47;;;;;;;;;;5010232;28;20040;-76
2021/06/18 08:49:54;;;;;;;11.15;4.72;;;;;;;;;;5014560;28;20549;-76
2021/06/18 08:52:19;;;;;;;9.52;5.20;;;;;;;;;;5014316;28;20029;-76
2021/06/18 08:54:46;;;;;;;8.48;4.30;;;;;;;;;;4997799;28;20050;-76
2021/06/18 08:57:17;;;;;;;8.85;4.20;;;;;;;;;;5014166;28;20022;-76
2021/06/18 08:59:42;;;;;;;15.63;5.10;;;;;;;;;;5030198;28;20091;-76
2021/06/18 09:02:09;;;;;;;6.80;3.97;;;;;;;;;;5018423;28;20435;-76
2021/06/18 09:05:03;;;;;;;7.57;3.92;;;;;;;;;;5046697;28;20488;-76
2021/06/18 09:07:28;;;;;;;10.18;4.40;;;;;;;;;;5030308;28;20044;-76
2021/06/18 09:09:54;;;;;;;8.82;3.85;;;;;;;;;;5030927;28;20029;-76
2021/06/18 09:12:19;;;;;;;6.10;3.58;;;;;;;;;;5013344;28;20506;-76
2021/06/18 09:14:45;;;;;;;10.32;3.92;;;;;;;;;;5048042;28;20041;-76
2021/06/18 09:17:13;;;;;;;7.63;4.07;;;;;;;;;;5050228;28;20516;-76
2021/06/18 09:19:46;;;;;;;10.90;3.97;;;;;;;;;;5045478;28;20558;-77
2021/06/18 09:22:13;;;;;;;10.07;4.35;;;;;;;;;;5008157;28;20033;-77
2021/06/18 09:24:41;;;;;;;8.43;4.68;;;;;;;;;;5026879;28;20048;-77
2021/06/18 09:27:06;;;;;;;9.65;4.75;;;;;;;;;;5012797;28;20049;-77
2021/06/18 09:29:36;;;;;;;8.95;3.92;;;;;;;;;;5010452;28;20384;-77
2021/06/18 09:32:09;;;;;;;8.93;4.55;;;;;;;;;;5010535;28;20104;-77
2021/06/18 09:37:14;;;;;;;7.97;4.55;;;;;;;;;;5010748;28;20030;-77
2021/06/18 09:40:02;;;;;;;7.80;4.47;;;;;;;;;;5015878;28;20021;-78
2021/06/18 09:42:28;;;;;;;6.90;4.50;;;;;;;;;;5028866;28;20068;-78
2021/06/18 09:45:02;;;;;;;11.75;4.53;;;;;;;;;;5017588;28;20038;-77
2021/06/18 09:47:28;;;;;;;9.90;4.85;;;;;;;;;;5024371;28;20049;-78
2021/06/18 09:49:54;;;;;;;10.18;3.92;;;;;;;;;;5008541;28;20376;-78
2021/06/18 09:52:21;;;;;;;11.43;4.38;;;;;;;;;;5015581;28;20038;-78
2021/06/18 09:54:49;;;;;;;11.35;4.38;;;;;;;;;;5034893;28;20052;-78
2021/06/18 09:57:41;;;;;;;10.95;3.92;;;;;;;;;;5017830;28;20111;-78
2021/06/18 10:00:17;;;;;;;10.75;6.95;;;;;;;;;;5018866;28;20041;-77
2021/06/18 10:02:49;;;;;;;8.65;4.72;;;;;;;;;;5017218;28;20052;-78
2021/06/18 10:05:16;;;;;;;10.55;6.10;;;;;;;;;;5033579;28;20408;-78
2021/06/18 10:07:42;;;;;;;7.30;4.15;;;;;;;;;;5031296;28;20396;-78
2021/06/18 10:10:13;;;;;;;7.20;3.20;;;;;;;;;;5014866;28;20044;-78
2021/06/18 10:12:38;;;;;;;7.72;3.97;;;;;;;;;;5030747;28;20037;-78
2021/06/18 10:15:06;;;;;;;7.93;3.70;;;;;;;;;;5016782;28;20541;-78
2021/06/18 10:17:33;;;;;;;6.07;3.38;;;;;;;;;;5000467;28;20121;-78
2021/06/18 10:19:59;;;;;;;10.77;2.85;;;;;;;;;;5013818;28;20034;-78
2021/06/18 10:22:25;;;;;;;7.50;3.25;;;;;;;;;;5013866;28;20176;-78
2021/06/18 10:25:00;;;;;;;7.38;2.83;;;;;;;;;;5013603;28;20117;-78
2021/06/18 10:27:56;;;;;;;6.88;2.83;;;;;;;;;;5014002;28;20029;-78
2021/06/18 10:30:24;;;;;;;10.30;3.28;;;;;;;;;;5031139;28;20132;-78
2021/06/18 10:32:50;;;;;;;7.32;2.22;;;;;;;;;;5030006;28;20026;-77
2021/06/18 10:35:43;;;;;;;8.90;3.13;;;;;;;;;;4997073;28;20403;-78
2021/06/18 10:38:32;;;;;;;6.57;2.42;;;;;;;;;;4997625;28;20045;-77
2021/06/18 10:41:00;;;;;;;7.82;2.78;;;;;;;;;;4996874;28;20034;-79
2021/06/18 10:43:37;;;;;;;10.43;2.80;;;;;;;;;;5029407;28;20068;-78
2021/06/18 10:46:13;;;;;;;4.85;2.33;;;;;;;;;;5032625;28;20357;-78
2021/06/18 10:49:03;;;;;;;7.00;2.50;;;;;;;;;;5019505;28;20036;-78
2021/06/18 10:51:45;;;;;;;10.15;2.20;;;;;;;;;;5033049;28;20025;-78
2021/06/18 10:54:16;;;;;;;;;;;;;;;;;;5033033;28;20426;-78
2021/06/18 10:56:44;;;;;;;8.70;2.27;;;;;;;;;;5034023;28;20373;-78
2021/06/18 10:59:10;;;;;;;5.05;2.60;;;;;;;;;;5042531;28;20272;-78
2021/06/18 11:01:36;;;;;;;5.90;1.98;;;;;;;;;;5012994;28;20118;-78
2021/06/18 11:04:03;;;;;;;6.80;2.47;;;;;;;;;;5012367;28;20535;-78
2021/06/18 11:06:50;;;;;;;4.90;2.13;;;;;;;;;;5029503;28;20030;-78
2021/06/18 11:09:44;;;;;;;9.23;3.35;;;;;;;;;;5029852;28;20112;-78
2021/06/18 11:12:22;;;;;;;8.23;2.53;;;;;;;;;;5036933;28;20052;-78
2021/06/18 11:14:48;;;;;;;7.00;2.97;;;;;;;;;;5032990;28;20033;-77
2021/06/18 11:17:38;;;;;;;6.55;2.17;;;;;;;;;;5028843;28;20084;-78
2021/06/18 11:20:04;;;;;;;7.75;2.85;;;;;;;;;;5011983;28;20411;-78
2021/06/18 11:22:36;;;;;;;5.22;2.00;;;;;;;;;;5010112;28;20084;-77
2021/06/18 11:25:03;;;;;;;6.75;2.42;;;;;;;;;;5048706;28;20033;-77
2021/06/18 11:27:32;;;;;;;5.28;2.58;;;;;;;;;;5032769;28;20044;-78
2021/06/18 11:30:29;;;;;;;4.05;2.13;;;;;;;;;;5048605;28;20087;-78
2021/06/18 11:32:55;;;;;;;9.95;2.70;;;;;;;;;;5049410;28;20041;-78
2021/06/18 11:35:33;;;;;;;6.43;2.97;;;;;;;;;;5048619;28;20411;-78
2021/06/18 11:38:15;;;;;;;8.73;2.80;;;;;;;;;;5048115;28;20025;-78
2021/06/18 11:40:40;;;;;;;;;;;;;;;;;;5032712;28;20112;-78
2021/06/18 11:43:05;;;;;;;7.10;2.92;;;;;;;;;;5023966;28;20009;-79
2021/06/18 11:45:43;;;;;;;5.68;2.17;;;;;;;;;;5023848;28;20472;-78
2021/06/18 11:48:16;;;;;;;5.43;2.70;;;;;;;;;;5012405;28;20413;-78
2021/06/18 11:50:44;;;;;;;5.07;2.10;;;;;;;;;;5011884;28;20483;-78
2021/06/18 11:53:10;;;;;;;6.78;2.53;;;;;;;;;;5012984;28;20372;-78
2021/06/18 11:55:36;;;;;;;6.03;2.42;;;;;;;;;;5015925;28;20116;-78
2021/06/18 11:58:01;;;;;;;7.68;3.45;;;;;;;;;;5011730;28;20042;-78
2021/06/18 12:00:35;;;;;;;6.40;2.78;;;;;;;;;;5018609;28;20026;-78
2021/06/18 12:03:01;;;;;;;6.93;2.60;;;;;;;;;;5022021;28;20833;-78
2021/06/18 12:05:31;;;;;;;6.47;2.88;;;;;;;;;;5031528;28;20025;-78
2021/06/18 12:07:57;;;;;;;9.23;3.30;;;;;;;;;;5048521;28;20056;-79
2021/06/18 12:10:24;;;;;;;7.03;3.38;;;;;;;;;;5040624;28;20033;-79
2021/06/18 12:12:50;;;;;;;8.05;3.60;;;;;;;;;;5025060;28;20030;-79
2021/06/18 12:15:27;;;;;;;6.50;3.50;;;;;;;;;;5013316;28;20499;-79
2021/06/18 12:17:58;;;;;;;4.85;2.58;;;;;;;;;;5011587;28;20038;-78
2021/06/18 12:20:41;;;;;;;7.35;3.08;;;;;;;;;;5027816;28;20033;-78
2021/06/18 12:23:14;;;;;;;9.63;3.20;;;;;;;;;;4978801;28;20525;-77
2021/06/18 12:25:40;;;;;;;11.85;3.30;;;;;;;;;;5011635;28;20022;-78
2021/06/18 12:28:06;;;;;;;15.82;3.83;;;;;;;;;;5011724;28;20038;-78
2021/06/18 12:30:35;;;;;;;9.82;3.85;;;;;;;;;;5027267;28;20037;-77
2021/06/18 12:33:01;;;;;;;7.93;3.70;;;;;;;;;;4997254;28;20092;-78
2021/06/18 12:35:44;;;;;;;10.52;3.40;;;;;;;;;;5030622;28;20076;-78
2021/06/18 12:38:11;;;;;;;16.70;3.88;;;;;;;;;;5016039;28;20040;-79
2021/06/18 12:40:40;;;;;;;9.70;3.53;;;;;;;;;;4998589;28;20025;-78
2021/06/18 12:43:11;;;;;;;9.35;3.75;;;;;;;;;;5014197;28;20038;-80
2021/06/18 12:45:50;;;;;;;11.73;3.95;;;;;;;;;;4998114;28;20144;-77
2021/06/18 12:48:20;;;;;;;12.25;4.25;;;;;;;;;;5013322;28;20034;-77
2021/06/18 12:50:50;;;;;;;12.02;4.10;;;;;;;;;;5030797;28;20041;-77
2021/06/18 12:53:17;;;;;;;7.55;3.30;;;;;;;;;;5014234;28;20045;-79
2021/06/18 12:55:51;;;;;;;8.35;3.67;;;;;;;;;;5013453;28;20043;-79
2021/06/18 12:58:24;;;;;;;9.27;3.50;;;;;;;;;;5029808;28;20065;-77
2021/06/18 13:01:02;;;;;;;8.10;3.47;;;;;;;;;;5030545;28;20091;-77
2021/06/18 13:03:32;;;;;;;7.47;3.00;;;;;;;;;;5026478;28;20034;-78
2021/06/18 13:05:58;;;;;;;8.23;3.13;;;;;;;;;;5024725;28;20037;-77
2021/06/18 13:08:23;;;;;;;5.80;3.25;;;;;;;;;;5037031;28;20033;-77
2021/06/18 13:10:51;;;;;;;7.03;3.20;;;;;;;;;;5016069;28;20396;-77
2021/06/18 13:13:30;;;;;;;11.15;3.30;;;;;;;;;;5019283;28;20050;-78
2021/06/18 13:16:11;;;;;;;10.77;3.95;;;;;;;;;;5030174;28;20045;-78
2021/06/18 13:19:12;;;;;;;7.47;3.58;;;;;;;;;;5013737;28;20438;-78
2021/06/18 13:21:51;;;;;;;7.80;3.53;;;;;;;;;;4996196;28;20039;-78
2021/06/18 13:24:27;;;;;;;9.95;3.67;;;;;;;;;;5007943;28;20412;-78
2021/06/18 13:27:07;;;;;;;11.68;3.72;;;;;;;;;;5029591;28;20033;-78
2021/06/18 13:29:33;;;;;;;7.20;4.00;;;;;;;;;;5005188;28;20108;-77
2021/06/18 13:31:59;;;;;;;13.02;7.15;;;;;;;;;;5012758;28;20041;-76
2021/06/18 13:34:26;;;;;;;11.10;6.93;;;;;;;;;;5029830;28;20029;-78
2021/06/18 13:36:59;;;;;;;8.95;4.88;;;;;;;;;;5013439;28;20067;-77
2021/06/18 13:39:25;;;;;;;7.28;4.90;;;;;;;;;;5028285;28;20033;-77
2021/06/18 13:41:53;;;;;;;7.28;4.47;;;;;;;;;;5012767;28;20134;-77
2021/06/18 13:44:19;;;;;;;10.57;4.32;;;;;;;;;;5026914;28;20029;-77
2021/06/18 13:46:44;;;;;;;4.38;3.10;;;;;;;;;;5028930;28;20480;-77
2021/06/18 13:49:11;;;;;;;7.15;3.40;;;;;;;;;;5013343;28;20099;-77
2021/06/18 13:51:36;;;;;;;6.50;3.47;;;;;;;;;;5013420;28;20053;-77
2021/06/18 13:54:02;;;;;;;6.43;3.72;;;;;;;;;;5013064;28;20025;-77
2021/06/18 13:56:28;;;;;;;6.43;3.30;;;;;;;;;;5029448;28;20029;-79
2021/06/18 13:58:54;;;;;;;6.43;3.40;;;;;;;;;;4996252;28;20495;-79
2021/06/18 14:01:20;;;;;;;5.63;3.50;;;;;;;;;;5029182;28;20036;-79
2021/06/18 14:03:45;;;;;;;5.03;3.40;;;;;;;;;;5013209;28;20033;-79
2021/06/18 14:06:11;;;;;;;7.63;3.42;;;;;;;;;;5012902;28;20049;-77
2021/06/18 14:08:36;;;;;;;4.05;3.30;;;;;;;;;;5012719;28;20499;-77
2021/06/18 14:11:02;;;;;;;15.35;3.35;;;;;;;;;;4996703;28;20033;-77
2021/06/18 14:13:28;;;;;;;6.10;3.30;;;;;;;;;;5011237;28;20065;-77
2021/06/18 14:15:54;;;;;;;4.53;2.97;;;;;;;;;;5012827;28;20551;-77
2021/06/18 14:18:20;;;;;;;9.15;3.28;;;;;;;;;;5029690;28;20029;-77
2021/06/18 14:20:47;;;;;;;5.47;3.20;;;;;;;;;;4997036;28;20549;-77
2021/06/18 14:23:13;;;;;;;3.45;3.05;;;;;;;;;;5029945;28;20061;-78
2021/06/18 14:25:39;;;;;;;4.18;3.03;;;;;;;;;;5046477;28;20037;-80
2021/06/18 14:28:04;;;;;;;10.85;3.45;;;;;;;;;;5012700;28;20057;-80
2021/06/18 14:30:30;;;;;;;9.77;3.05;;;;;;;;;;5012571;28;20025;-80
2021/06/18 14:32:56;;;;;;;8.45;3.10;;;;;;;;;;5029721;28;20056;-78
2021/06/18 14:35:22;;;;;;;9.45;3.92;;;;;;;;;;5029404;28;20029;-77
2021/06/18 14:37:48;;;;;;;7.38;3.08;;;;;;;;;;5031045;28;20094;-77
2021/06/18 14:40:14;;;;;;;9.13;3.25;;;;;;;;;;5016607;28;20372;-77
2021/06/18 14:42:39;;;;;;;5.50;2.83;;;;;;;;;;5016342;28;20116;-77
2021/06/18 14:45:05;;;;;;;6.20;3.42;;;;;;;;;;5030258;28;20399;-77
2021/06/18 14:47:31;;;;;;;8.75;3.63;;;;;;;;;;5007889;28;20164;-77
2021/06/18 14:49:57;;;;;;;6.63;3.35;;;;;;;;;;5022843;28;20484;-76